createdAt,value
2018-09-25T00:01:42.875Z,1.83
2018-09-25T00:04:16.645Z,1.70
2018-09-25T00:06:50.408Z,1.77
2018-09-25T00:09:24.254Z,1.53
2018-09-25T00:11:57.713Z,1.87
2018-09-25T00:14:31.720Z,1.70
2018-09-25T00:17:05.420Z,2.13
2018-09-25T00:19:39.291Z,2.23
2018-09-25T00:22:13.084Z,2.07
2018-09-25T00:24:47.032Z,1.90
2018-09-25T00:27:20.904Z,1.77
2018-09-25T00:29:54.606Z,2.10
2018-09-25T00:32:28.358Z,2.13
2018-09-25T00:35:02.504Z,2.37
2018-09-25T00:37:36.222Z,1.90
2018-09-25T00:40:09.989Z,2.20
2018-09-25T00:42:43.716Z,1.70
2018-09-25T00:45:17.538Z,1.47
2018-09-25T00:47:51.469Z,1.93
2018-09-25T00:50:25.441Z,2.07
2018-09-25T00:52:59.483Z,2.23
2018-09-25T00:55:33.092Z,2.03
2018-09-25T00:58:06.932Z,2.00
2018-09-25T01:00:41.287Z,2.70
2018-09-25T01:03:15.087Z,2.50
2018-09-25T01:05:48.891Z,2.47
2018-09-25T01:08:22.531Z,2.23
2018-09-25T01:10:56.312Z,2.30
2018-09-25T01:13:30.207Z,1.80
2018-09-25T01:16:03.880Z,2.20
2018-09-25T01:18:37.697Z,1.93
2018-09-25T01:21:11.319Z,1.90
2018-09-25T01:23:45.357Z,1.73
2018-09-25T01:26:19.137Z,2.03
2018-09-25T01:28:52.838Z,2.10
2018-09-25T01:31:26.580Z,2.20
2018-09-25T01:34:00.299Z,2.70
2018-09-25T01:36:34.492Z,2.00
2018-09-25T01:39:08.372Z,2.10
2018-09-25T01:41:42.266Z,1.80
2018-09-25T01:44:16.174Z,1.30
2018-09-25T01:46:50.247Z,1.50
2018-09-25T01:49:23.901Z,1.60
2018-09-25T01:51:57.763Z,1.40
2018-09-25T01:54:31.475Z,1.40
2018-09-25T01:57:05.624Z,1.53
2018-09-25T01:59:39.218Z,1.43
2018-09-25T02:02:13.285Z,1.93
2018-09-25T02:04:47.077Z,1.63
2018-09-25T02:07:21.179Z,1.13
2018-09-25T02:10:01.654Z,1.60
2018-09-25T02:12:35.455Z,1.60
2018-09-25T02:15:09.411Z,1.93
2018-09-25T02:17:43.752Z,1.63
2018-09-25T02:20:17.487Z,2.00
2018-09-25T02:22:51.355Z,1.50
2018-09-25T02:28:15.196Z,2.03
2018-09-25T02:30:48.911Z,1.80
2018-09-25T02:33:22.647Z,1.70
2018-09-25T02:35:56.447Z,1.57
2018-09-25T02:38:30.332Z,1.60
2018-09-25T02:41:04.102Z,1.40
2018-09-25T02:43:37.957Z,1.87
2018-09-25T02:46:11.991Z,1.53
2018-09-25T02:48:45.620Z,1.67
2018-09-25T02:51:19.488Z,1.87
2018-09-25T02:53:53.288Z,1.50
2018-09-25T02:56:27.300Z,1.50
2018-09-25T02:59:01.560Z,1.73
2018-09-25T03:01:38.186Z,2.10
2018-09-25T03:04:12.310Z,2.20
2018-09-25T03:06:46.291Z,2.17
2018-09-25T03:09:19.925Z,2.30
2018-09-25T03:11:53.682Z,1.70
2018-09-25T03:14:27.481Z,1.90
2018-09-25T03:17:01.464Z,1.90
2018-09-25T03:19:35.174Z,2.40
2018-09-25T03:22:09.047Z,2.30
2018-09-25T03:24:44.664Z,2.43
2018-09-25T03:27:19.275Z,2.00
2018-09-25T03:29:53.304Z,2.20
2018-09-25T03:32:26.986Z,2.40
2018-09-25T03:35:01.458Z,1.87
2018-09-25T03:37:35.280Z,2.03
2018-09-25T03:40:09.450Z,2.13
2018-09-25T03:42:43.260Z,1.60
2018-09-25T03:45:18.274Z,1.97
2018-09-25T03:47:53.708Z,2.10
2018-09-25T03:50:27.929Z,1.80
2018-09-25T03:53:02.886Z,2.20
2018-09-25T03:55:37.137Z,2.20
2018-09-25T03:58:10.741Z,2.53
2018-09-25T04:00:47.709Z,2.20
2018-09-25T04:03:21.345Z,2.20
2018-09-25T04:06:02.400Z,2.37
2018-09-25T04:08:36.116Z,2.30
2018-09-25T04:11:11.536Z,1.73
2018-09-25T04:13:45.309Z,1.77
2018-09-25T04:16:26.221Z,1.97
2018-09-25T04:19:00.046Z,2.07
2018-09-25T04:21:33.936Z,1.43
2018-09-25T04:24:07.783Z,1.43
2018-09-25T04:26:41.630Z,1.70
2018-09-25T04:29:15.231Z,2.10
2018-09-25T04:31:49.210Z,1.60
2018-09-25T04:34:22.980Z,2.00
2018-09-25T04:36:56.706Z,2.90
2018-09-25T04:39:30.657Z,1.80
2018-09-25T04:42:04.392Z,1.97
2018-09-25T04:44:38.041Z,1.70
2018-09-25T04:47:12.222Z,1.87
2018-09-25T04:49:45.849Z,2.17
2018-09-25T04:52:19.584Z,1.80
2018-09-25T04:54:53.383Z,1.77
2018-09-25T04:57:27.444Z,2.20
2018-09-25T05:00:01.236Z,2.00
2018-09-25T05:02:35.057Z,1.60
2018-09-25T05:05:09.765Z,1.90
2018-09-25T05:07:45.349Z,1.87
2018-09-25T05:10:21.089Z,2.40
2018-09-25T05:12:54.887Z,1.30
2018-09-25T05:15:28.614Z,1.87
2018-09-25T05:18:02.456Z,2.20
2018-09-25T05:20:35.984Z,2.00
2018-09-25T05:23:09.724Z,2.00
2018-09-25T05:25:43.541Z,2.20
2018-09-25T05:28:17.533Z,2.30
2018-09-25T05:30:51.332Z,2.10
2018-09-25T05:33:44.378Z,2.23
2018-09-25T05:36:19.151Z,2.00
2018-09-25T05:38:54.034Z,1.80
2018-09-25T05:41:27.661Z,2.43
2018-09-25T05:44:01.346Z,2.70
2018-09-25T05:46:34.951Z,2.70
2018-09-25T05:49:08.704Z,2.20
2018-09-25T05:51:42.301Z,2.23
2018-09-25T05:54:15.967Z,2.57
2018-09-25T05:56:49.552Z,2.50
2018-09-25T05:59:23.208Z,2.50
2018-09-25T06:01:57.082Z,2.17
2018-09-25T06:04:30.999Z,2.33
2018-09-25T06:07:04.580Z,2.40
2018-09-25T06:09:38.428Z,2.40
2018-09-25T06:12:11.962Z,2.10
2018-09-25T06:14:45.828Z,2.20
2018-09-25T06:17:19.600Z,2.33
2018-09-25T06:19:53.497Z,2.10
2018-09-25T06:22:27.360Z,2.00
2018-09-25T06:25:01.186Z,2.50
2018-09-25T06:27:34.929Z,2.03
2018-09-25T06:30:08.680Z,2.10
2018-09-25T06:32:42.240Z,1.87
2018-09-25T06:35:16.016Z,1.90
2018-09-25T06:37:49.710Z,2.37
2018-09-25T06:40:23.678Z,1.70
2018-09-25T06:42:57.407Z,2.07
2018-09-25T06:45:31.193Z,2.10
2018-09-25T06:48:04.867Z,2.20
2018-09-25T06:50:38.639Z,1.73
2018-09-25T06:53:12.411Z,1.57
2018-09-25T06:55:46.534Z,1.87
2018-09-25T06:58:20.288Z,2.20
2018-09-25T07:00:54.134Z,2.03
2018-09-25T07:03:27.815Z,1.80
2018-09-25T07:06:01.536Z,2.13
2018-09-25T07:08:35.230Z,2.33
2018-09-25T07:11:09.336Z,1.80
2018-09-25T07:13:43.094Z,2.17
2018-09-25T07:16:16.998Z,1.57
2018-09-25T07:18:50.821Z,1.50
2018-09-25T07:21:24.610Z,1.67
2018-09-25T07:23:58.113Z,1.40
2018-09-25T07:26:31.840Z,2.07
2018-09-25T07:29:05.428Z,1.77
2018-09-25T07:31:39.239Z,1.73
2018-09-25T07:34:12.949Z,1.50
2018-09-25T07:36:46.859Z,1.70
2018-09-25T07:39:20.853Z,1.77
2018-09-25T07:41:54.649Z,1.90
2018-09-25T07:44:28.495Z,1.90
2018-09-25T07:47:02.688Z,2.10
2018-09-25T07:49:36.546Z,1.90
2018-09-25T07:52:10.316Z,1.83
2018-09-25T07:54:43.940Z,1.97
2018-09-25T07:57:17.704Z,1.83
2018-09-25T07:59:51.380Z,2.00
2018-09-25T08:02:25.461Z,2.00
2018-09-25T08:04:59.223Z,1.30
2018-09-25T08:07:33.188Z,1.50
2018-09-25T08:10:06.799Z,1.50
2018-09-25T08:12:40.606Z,1.30
2018-09-25T08:15:14.288Z,1.30
2018-09-25T08:17:50.109Z,1.23
2018-09-25T08:20:32.643Z,1.40
2018-09-25T08:23:06.283Z,1.00
2018-09-25T08:25:39.902Z,0.70
2018-09-25T08:28:14.367Z,1.10
2018-09-25T08:30:48.031Z,0.90
2018-09-25T08:33:21.751Z,0.90
2018-09-25T08:35:55.416Z,1.20
2018-09-25T08:38:29.124Z,1.30
2018-09-25T08:41:02.876Z,1.30
2018-09-25T08:43:36.491Z,1.07
2018-09-25T08:46:10.224Z,0.87
2018-09-25T08:48:43.886Z,0.80
2018-09-25T08:51:17.650Z,1.00
2018-09-25T08:53:51.541Z,1.00
2018-09-25T08:56:25.082Z,1.00
2018-09-25T08:58:58.852Z,1.00
2018-09-25T09:01:32.515Z,1.05
2018-09-25T09:04:06.153Z,1.12
2018-09-25T09:06:39.965Z,1.10
2018-09-25T09:09:14.990Z,1.10
2018-09-25T09:11:49.227Z,1.10
2018-09-25T09:14:23.220Z,1.07
2018-09-25T09:16:56.882Z,1.30
2018-09-25T09:19:30.626Z,1.07
2018-09-25T09:22:04.245Z,1.20
2018-09-25T09:24:38.047Z,1.10
2018-09-25T09:27:11.780Z,0.88
2018-09-25T09:29:45.526Z,0.90
2018-09-25T09:32:19.212Z,0.93
2018-09-25T09:34:52.920Z,0.87
2018-09-25T09:37:26.608Z,0.72
2018-09-25T09:40:00.292Z,0.93
2018-09-25T09:42:34.085Z,1.00
2018-09-25T09:45:07.832Z,0.85
2018-09-25T09:47:41.509Z,0.90
2018-09-25T09:50:15.245Z,0.83
2018-09-25T09:52:48.821Z,0.97
2018-09-25T09:55:22.568Z,1.00
2018-09-25T09:57:56.183Z,1.10
2018-09-25T10:00:30.308Z,0.97
2018-09-25T10:03:04.100Z,1.42
2018-09-25T10:05:37.983Z,0.90
2018-09-25T10:08:11.838Z,0.73
2018-09-25T10:10:45.553Z,1.10
2018-09-25T10:13:19.361Z,0.67
2018-09-25T10:15:53.090Z,1.27
2018-09-25T10:18:26.790Z,1.17
2018-09-25T10:21:00.446Z,1.05
2018-09-25T10:23:34.162Z,0.90
2018-09-25T10:26:07.919Z,0.90
2018-09-25T10:28:41.581Z,1.10
2018-09-25T10:31:16.218Z,1.12
2018-09-25T10:33:49.968Z,1.10
2018-09-25T10:36:24.002Z,1.02
2018-09-25T10:38:57.840Z,1.57
2018-09-25T10:41:31.596Z,1.40
2018-09-25T10:44:05.251Z,1.00
2018-09-25T10:46:39.121Z,1.07
2018-09-25T10:49:12.721Z,0.88
2018-09-25T10:51:46.484Z,1.00
2018-09-25T10:54:20.196Z,0.70
2018-09-25T10:56:54.329Z,0.75
2018-09-25T10:59:27.912Z,1.75
2018-09-25T11:02:01.696Z,1.12
2018-09-25T11:04:35.406Z,0.90
2018-09-25T11:07:09.181Z,0.65
2018-09-25T11:09:42.813Z,0.90
2018-09-25T11:12:16.643Z,1.17
2018-09-25T11:14:50.224Z,1.10
2018-09-25T11:17:23.934Z,1.00
2018-09-25T11:19:57.761Z,1.15
2018-09-25T11:22:31.389Z,0.85
2018-09-25T11:25:05.898Z,0.90
2018-09-25T11:27:42.637Z,1.00
2018-09-25T11:30:16.368Z,1.07
2018-09-25T11:32:50.201Z,1.12
2018-09-25T11:35:25.148Z,1.00
2018-09-25T11:37:58.872Z,0.85
2018-09-25T11:40:32.510Z,0.93
2018-09-25T11:43:06.245Z,0.98
2018-09-25T11:45:39.880Z,1.00
2018-09-25T11:48:13.597Z,1.25
2018-09-25T11:50:47.401Z,1.07
2018-09-25T11:53:21.344Z,1.00
2018-09-25T11:55:54.941Z,1.72
2018-09-25T11:58:28.669Z,1.10
2018-09-25T12:01:02.287Z,1.02
2018-09-25T12:03:36.012Z,1.15
2018-09-25T12:06:09.674Z,0.80
2018-09-25T12:08:43.376Z,1.40
2018-09-25T12:11:16.994Z,0.80
2018-09-25T12:13:51.019Z,0.85
2018-09-25T12:16:24.813Z,1.10
2018-09-25T12:18:58.585Z,0.98
2018-09-25T12:21:32.284Z,1.27
2018-09-25T12:24:06.000Z,0.60
2018-09-25T12:26:39.895Z,1.10
2018-09-25T12:29:13.513Z,1.22
2018-09-25T12:31:47.535Z,1.12
2018-09-25T12:34:21.192Z,0.60
2018-09-25T12:36:54.832Z,0.80
2018-09-25T12:39:28.646Z,1.00
2018-09-25T12:42:02.463Z,0.98
2018-09-25T12:44:36.210Z,1.10
2018-09-25T12:47:09.944Z,0.70
2018-09-25T12:49:43.676Z,0.95
2018-09-25T12:52:17.258Z,0.78
2018-09-25T12:54:53.066Z,0.85
2018-09-25T12:57:26.807Z,0.70
2018-09-25T13:00:00.686Z,0.80
2018-09-25T13:02:34.357Z,1.07
2018-09-25T13:05:08.835Z,0.90
2018-09-25T13:07:44.199Z,1.25
2018-09-25T13:10:18.181Z,0.65
2018-09-25T13:12:52.197Z,0.50
2018-09-25T13:15:25.985Z,0.65
2018-09-25T13:17:59.719Z,0.72
2018-09-25T13:20:33.584Z,0.82
2018-09-25T13:23:07.237Z,0.93
2018-09-25T13:25:40.803Z,0.70
2018-09-25T13:28:14.529Z,1.00
2018-09-25T13:30:48.439Z,0.80
2018-09-25T13:33:22.139Z,0.98
2018-09-25T13:35:55.706Z,1.27
2018-09-25T13:38:29.353Z,1.10
2018-09-25T13:41:03.150Z,0.90
2018-09-25T13:43:36.785Z,0.90
2018-09-25T13:46:11.113Z,0.68
2018-09-25T13:48:44.788Z,0.90
2018-09-25T13:51:18.451Z,1.05
2018-09-25T13:53:52.035Z,0.75
2018-09-25T13:56:25.703Z,0.60
2018-09-25T13:58:59.464Z,1.17
2018-09-25T14:01:33.375Z,0.68
2018-09-25T14:04:07.266Z,0.75
2018-09-25T14:06:40.944Z,0.88
2018-09-25T14:09:15.000Z,0.98
2018-09-25T14:11:48.741Z,0.60
2018-09-25T14:14:22.316Z,0.70
2018-09-25T14:16:56.064Z,0.68
2018-09-25T14:19:29.680Z,0.78
2018-09-25T14:22:03.647Z,0.88
2018-09-25T14:24:37.462Z,0.80
2018-09-25T14:27:11.255Z,0.57
2018-09-25T14:29:44.954Z,0.82
2018-09-25T14:32:18.810Z,0.55
2018-09-25T14:34:52.466Z,0.88
2018-09-25T14:37:26.072Z,0.90
2018-09-25T14:39:59.727Z,0.80
2018-09-25T14:42:33.506Z,1.10
2018-09-25T14:45:07.331Z,1.10
2018-09-25T14:47:41.069Z,1.25
2018-09-25T14:50:14.876Z,1.50
2018-09-25T14:52:48.674Z,1.42
2018-09-25T14:55:22.441Z,1.30
2018-09-25T14:57:56.236Z,1.07
2018-09-25T15:00:29.927Z,1.10
2018-09-25T15:03:03.595Z,1.30
2018-09-25T15:05:37.308Z,1.10
2018-09-25T15:08:10.992Z,1.22
2018-09-25T15:10:44.963Z,1.07
2018-09-25T15:13:18.790Z,1.40
2018-09-25T15:15:52.473Z,1.30
2018-09-25T15:18:26.669Z,1.07
2018-09-25T15:21:00.438Z,1.47
2018-09-25T15:23:34.040Z,1.32
2018-09-25T15:26:07.800Z,1.40
2018-09-25T15:28:41.502Z,1.30
2018-09-25T15:31:15.021Z,1.12
2018-09-25T15:33:49.204Z,1.25
2018-09-25T15:36:22.919Z,1.35
2018-09-25T15:38:56.596Z,1.30
2018-09-25T15:41:30.353Z,1.10
2018-09-25T15:44:04.111Z,1.40
2018-09-25T15:46:37.798Z,1.22
2018-09-25T15:49:12.100Z,1.20
2018-09-25T15:51:45.941Z,1.20
2018-09-25T15:54:19.753Z,0.90
2018-09-25T15:56:53.400Z,1.50
2018-09-25T15:59:27.133Z,1.00
2018-09-25T16:02:00.808Z,1.00
2018-09-25T16:04:34.515Z,1.37
2018-09-25T16:07:08.379Z,1.22
2018-09-25T16:09:42.334Z,1.35
2018-09-25T16:12:16.442Z,1.40
2018-09-25T16:14:50.253Z,1.60
2018-09-25T16:17:23.886Z,1.20
2018-09-25T16:19:57.606Z,1.47
2018-09-25T16:22:31.275Z,1.60
2018-09-25T16:25:05.065Z,1.22
2018-09-25T16:27:38.865Z,1.30
2018-09-25T16:30:12.469Z,1.37
2018-09-25T16:32:46.120Z,1.17
2018-09-25T16:35:19.875Z,1.40
2018-09-25T16:37:53.637Z,1.25
2018-09-25T16:40:27.300Z,1.25
2018-09-25T16:43:01.099Z,1.05
2018-09-25T16:45:35.420Z,1.60
2018-09-25T16:48:09.085Z,1.10
2018-09-25T16:50:42.918Z,1.00
2018-09-25T16:53:16.687Z,1.67
2018-09-25T16:55:50.616Z,1.30
2018-09-25T16:58:24.154Z,1.17
2018-09-25T17:00:57.840Z,1.45
2018-09-25T17:03:31.434Z,1.32
2018-09-25T17:06:05.136Z,1.72
2018-09-25T17:08:38.668Z,1.30
2018-09-25T17:11:12.414Z,1.40
2018-09-25T17:13:46.100Z,1.00
2018-09-25T17:16:19.832Z,1.30
2018-09-25T17:18:53.506Z,1.00
2018-09-25T17:21:27.289Z,1.22
2018-09-25T17:24:01.074Z,1.60
2018-09-25T17:26:34.766Z,1.20
2018-09-25T17:29:08.523Z,1.10
2018-09-25T17:31:42.340Z,1.20
2018-09-25T17:34:16.087Z,1.25
2018-09-25T17:36:49.823Z,1.40
2018-09-25T17:39:23.604Z,1.47
2018-09-25T17:41:57.226Z,1.60
2018-09-25T17:44:30.817Z,1.40
2018-09-25T17:47:04.458Z,1.30
2018-09-25T17:49:38.036Z,1.70
2018-09-25T17:52:12.061Z,1.50
2018-09-25T17:54:45.670Z,1.90
2018-09-25T17:57:19.478Z,2.35
2018-09-25T17:59:53.196Z,1.82
2018-09-25T18:02:26.989Z,1.80
2018-09-25T18:05:00.865Z,2.20
2018-09-25T18:07:34.525Z,2.37
2018-09-25T18:10:08.373Z,2.05
2018-09-25T18:12:42.000Z,1.93
2018-09-25T18:15:15.742Z,2.13
2018-09-25T18:17:49.308Z,1.70
2018-09-25T18:20:22.949Z,1.80
2018-09-25T18:22:56.565Z,1.77
2018-09-25T18:25:30.449Z,2.02
2018-09-25T18:28:06.076Z,1.80
2018-09-25T18:30:39.739Z,2.20
2018-09-25T18:33:13.327Z,1.90
2018-09-25T18:35:47.105Z,2.03
2018-09-25T18:38:20.775Z,3.05
2018-09-25T18:40:54.314Z,1.83
2018-09-25T18:43:28.115Z,1.67
2018-09-25T18:46:02.209Z,2.40
2018-09-25T18:48:36.637Z,3.77
2018-09-25T18:51:10.695Z,3.40
2018-09-25T18:53:44.913Z,4.13
2018-09-25T18:56:18.734Z,4.10
2018-09-25T18:58:52.567Z,4.27
2018-09-25T19:01:26.290Z,4.03
2018-09-25T19:04:00.214Z,3.30
2018-09-25T19:06:33.832Z,3.05
2018-09-25T19:09:07.513Z,3.27
2018-09-25T19:11:42.497Z,3.20
2018-09-25T19:14:18.494Z,3.53
2018-09-25T19:16:52.637Z,3.80
2018-09-25T19:19:28.800Z,3.30
2018-09-25T19:22:05.184Z,3.70
2018-09-25T19:24:40.196Z,3.30
2018-09-25T19:27:14.720Z,3.50
2018-09-25T19:29:48.541Z,3.07
2018-09-25T19:32:22.398Z,2.87
2018-09-25T19:34:59.021Z,2.87
2018-09-25T19:37:34.086Z,3.53
2018-09-25T19:40:07.922Z,4.13
2018-09-25T19:42:42.019Z,3.20
2018-09-25T19:45:16.635Z,4.40
2018-09-25T19:47:51.678Z,4.57
2018-09-25T19:50:27.529Z,5.53
2018-09-25T19:53:02.261Z,5.37
2018-09-25T19:55:37.191Z,5.77
2018-09-25T19:58:10.907Z,6.43
2018-09-25T20:00:44.812Z,5.43
2018-09-25T20:03:19.387Z,5.87
2018-09-25T20:05:53.379Z,5.00
2018-09-25T20:08:27.802Z,6.17
2018-09-25T20:11:01.491Z,6.37
2018-09-25T20:13:35.556Z,5.50
2018-09-25T20:16:10.084Z,5.70
2018-09-25T20:18:43.688Z,6.10
2018-09-25T20:21:18.393Z,6.33
2018-09-25T20:23:52.329Z,6.10
2018-09-25T20:26:25.909Z,5.90
2018-09-25T20:28:59.518Z,5.87
2018-09-25T20:31:33.778Z,5.43
2018-09-25T20:34:07.612Z,5.37
2018-09-25T20:36:41.877Z,6.43
2018-09-25T20:39:15.685Z,6.60
2018-09-25T20:41:49.588Z,5.73
2018-09-25T20:44:23.555Z,5.90
2018-09-25T20:46:57.297Z,5.80
2018-09-25T20:49:31.464Z,5.67
2018-09-25T20:52:07.093Z,5.83
2018-09-25T20:54:40.792Z,5.57
2018-09-25T20:57:14.856Z,6.10
2018-09-25T20:59:48.495Z,5.37
2018-09-25T21:02:22.217Z,5.13
2018-09-25T21:04:56.226Z,4.77
2018-09-25T21:07:30.304Z,5.40
2018-09-25T21:10:05.046Z,5.20
2018-09-25T21:12:40.102Z,5.00
2018-09-25T21:15:15.203Z,5.97
2018-09-25T21:17:49.254Z,4.73
2018-09-25T21:20:23.603Z,4.50
2018-09-25T21:22:57.603Z,3.93
2018-09-25T21:25:32.383Z,4.40
2018-09-25T21:28:06.434Z,4.80
2018-09-25T21:30:54.593Z,3.90
2018-09-25T21:33:28.306Z,4.03
2018-09-25T21:36:03.288Z,4.33
2018-09-25T21:38:37.201Z,4.10
2018-09-25T21:41:11.006Z,3.73
2018-09-25T21:43:45.359Z,3.47
2018-09-25T21:46:19.259Z,4.37
2018-09-25T21:48:53.181Z,3.77
2018-09-25T21:51:27.461Z,3.67
2018-09-25T21:54:04.680Z,4.17
2018-09-25T21:56:38.621Z,3.60
2018-09-25T21:59:12.760Z,3.70
2018-09-25T22:01:46.947Z,3.90
2018-09-25T22:04:21.812Z,3.57
2018-09-25T22:06:55.518Z,4.10
2018-09-25T22:09:29.519Z,4.33
2018-09-25T22:12:03.986Z,3.77
2018-09-25T22:14:38.163Z,4.40
2018-09-25T22:17:15.424Z,4.00
2018-09-25T22:19:49.936Z,3.40
2018-09-25T22:22:24.112Z,3.67
2018-09-25T22:25:00.594Z,3.70
2018-09-25T22:27:34.330Z,3.90
2018-09-25T22:30:08.284Z,4.30
2018-09-25T22:32:41.795Z,3.80
2018-09-25T22:35:16.327Z,3.40
2018-09-25T22:37:50.164Z,3.83
2018-09-25T22:40:23.995Z,4.10
2018-09-25T22:42:58.516Z,3.70
2018-09-25T22:45:32.332Z,4.03
2018-09-25T22:48:07.224Z,3.70
2018-09-25T22:50:41.519Z,3.30
2018-09-25T22:53:15.174Z,3.40
2018-09-25T22:55:49.185Z,3.67
2018-09-25T22:58:23.860Z,4.30
2018-09-25T23:00:58.683Z,3.53
2018-09-25T23:03:32.489Z,3.50
2018-09-25T23:06:06.573Z,3.30
2018-09-25T23:08:41.119Z,3.20
2018-09-25T23:11:15.210Z,3.20
2018-09-25T23:13:48.972Z,3.67
2018-09-25T23:16:23.494Z,3.60
2018-09-25T23:18:57.555Z,3.37
2018-09-25T23:21:31.430Z,3.43
2018-09-25T23:24:07.408Z,3.93
2018-09-25T23:26:41.566Z,3.50
2018-09-25T23:29:16.241Z,4.50
2018-09-25T23:31:50.729Z,3.40
2018-09-25T23:34:24.597Z,3.70
2018-09-25T23:36:59.988Z,3.37
2018-09-25T23:39:34.557Z,3.73
2018-09-25T23:42:09.115Z,3.33
2018-09-25T23:44:42.965Z,3.83
2018-09-25T23:47:23.009Z,3.67
2018-09-25T23:49:57.999Z,4.07
2018-09-25T23:52:32.202Z,4.07
2018-09-25T23:55:06.141Z,4.17
2018-09-25T23:57:41.815Z,4.20
